Lemoyne, Alabama
Current Conditions -  °F | °C
As of 12:53 PM on Friday 31 Oct 2014 (Local Time) from KBFM Reporting Station
Clear Clear  
Wind Chill: 73°   Ceiling: Unl
Heat Index: 73°   Visibility: 10mi
Dew Point: 50°   Wind: 7mph
Humidity: 44%   Direction: 320°NW
Pressure: 29.98"   Gusts: NA
Location:  31.0018°N, 87.9708°W
Report Text: KBFM 311753Z 32006KT 10SM CLR 23/10 A2998 RMK AO2 SLP151 T02280100 10233 20067 58022
Loading
Personal Weather Stations






























Interactive Weather Map
Tropical Storm Tracking
New forecast layout! Learn more

10-Day Weather Forecast

Advertisements
Track Severe Weather on mobile